Newport, Delaware
Current Conditions -  °F | °C
As of 6:51 PM on Saturday 22 Nov 2014 (Local Time) from KILG Reporting Station
Overcast Overcast  
Wind Chill: 39°   Ceiling: 8000
Heat Index: 44°   Visibility: 10mi
Dew Point: 19°   Wind: 9mph
Humidity: 37%   Direction: 190°S
Pressure: 30.31"   Gusts: NA
Location:  39.7187°N, 75.6123°W
Report Text: KILG 222351Z 19008KT 10SM OVC080 07/M07 A3031 RMK AO2 SLP263 60000 T00671072 10078 20067 56010
Loading
Personal Weather Stations






























Interactive Weather Map New forecast layout! Learn more

10-Day Weather Forecast

Advertisements
Track Severe Weather on mobile